Time;durP1;ratioP1;P1;durP2;ratioP2;P2;SDS_P1;SDS_P2;PMS_P1;PMS_P2;Temp;Humidity;BMP_temperature;BMP_pressure;BME280_temperature;BME280_humidity;BME280_pressure;Samples;Min_cycle;Max_cycle;Signal;HPM_P1;HPM_P2
2022/12/18 00:01:15;;;;;;;86.47;29.10;;;-3.60;99.90;;;;;;5110961;27;20043;-76
2022/12/18 00:03:41;;;;;;;79.87;28.43;;;-3.50;99.90;;;;;;5104522;27;20043;-76
2022/12/18 00:06:08;;;;;;;86.60;27.87;;;-3.50;99.90;;;;;;5113666;27;20091;-75
2022/12/18 00:08:34;;;;;;;77.93;28.40;;;-3.50;99.90;;;;;;5119017;27;20035;-76
2022/12/18 00:11:05;;;;;;;79.27;27.20;;;-3.50;99.90;;;;;;5109594;27;20125;-75
2022/12/18 00:13:30;;;;;;;76.97;27.47;;;-3.60;99.90;;;;;;5104312;27;20548;-76
2022/12/18 00:16:05;;;;;;;75.30;26.33;;;-3.60;99.90;;;;;;5105420;28;20122;-75
2022/12/18 00:18:31;;;;;;;88.23;27.93;;;-3.60;99.90;;;;;;5088507;27;20400;-75
2022/12/18 00:21:00;;;;;;;70.83;26.60;;;-3.60;99.90;;;;;;5097574;27;20052;-75
2022/12/18 00:23:26;;;;;;;83.03;25.63;;;-3.60;99.90;;;;;;5114329;27;20035;-75
2022/12/18 00:25:51;;;;;;;79.07;27.40;;;-3.60;99.90;;;;;;5103822;28;20047;-76
2022/12/18 00:28:17;;;;;;;80.77;26.77;;;-3.60;99.90;;;;;;5111285;27;20044;-76
2022/12/18 00:30:42;;;;;;;76.03;26.40;;;-3.60;99.90;;;;;;5112486;27;20496;-76
2022/12/18 00:33:08;;;;;;;78.07;26.83;;;-3.60;99.90;;;;;;5097256;27;20039;-76
2022/12/18 00:35:33;;;;;;;81.73;27.93;;;-3.60;99.90;;;;;;5111427;27;20485;-75
2022/12/18 00:37:59;;;;;;;93.77;29.37;;;-3.60;99.90;;;;;;5108812;28;20123;-75
2022/12/18 00:40:24;;;;;;;74.90;24.63;;;-3.60;99.90;;;;;;5104107;27;20043;-75
2022/12/18 00:42:55;;;;;;;75.27;26.63;;;-3.60;99.90;;;;;;5104376;27;20089;-75
2022/12/18 00:45:23;;;;;;;80.47;27.47;;;-3.60;99.90;;;;;;5102953;27;20051;-75
2022/12/18 00:47:49;;;;;;;80.07;27.63;;;-3.70;99.90;;;;;;5109338;27;20039;-75
2022/12/18 00:50:14;;;;;;;70.73;25.23;;;-3.70;99.90;;;;;;5107878;28;20493;-75
2022/12/18 00:52:40;;;;;;;72.00;25.90;;;-3.70;99.90;;;;;;5096813;27;20054;-75
2022/12/18 00:55:06;;;;;;;71.00;26.97;;;-3.70;99.90;;;;;;5095592;28;20055;-75
2022/12/18 00:57:32;;;;;;;74.30;24.37;;;-3.70;99.90;;;;;;5095052;28;20557;-76
2022/12/18 00:59:57;;;;;;;75.70;25.87;;;-3.70;99.90;;;;;;5079817;27;20067;-76
2022/12/18 01:02:23;;;;;;;65.70;24.40;;;-3.80;99.90;;;;;;5078803;28;20067;-76
2022/12/18 01:04:48;;;;;;;72.07;27.63;;;-3.80;99.90;;;;;;5096373;27;20047;-75
2022/12/18 01:07:14;;;;;;;67.10;25.87;;;-3.80;99.90;;;;;;5095692;28;20081;-75
2022/12/18 01:09:39;;;;;;;61.47;23.47;;;-3.80;99.90;;;;;;5095415;28;20505;-76
2022/12/18 01:12:05;;;;;;;69.23;25.53;;;-3.80;99.90;;;;;;5095872;28;20039;-75
2022/12/18 01:14:31;;;;;;;76.63;25.03;;;-3.90;99.90;;;;;;5095377;28;20531;-75
2022/12/18 01:16:57;;;;;;;66.53;25.10;;;-3.90;99.90;;;;;;5096111;27;20122;-75
2022/12/18 01:19:23;;;;;;;69.33;26.03;;;-3.90;99.90;;;;;;5095142;28;20035;-75
2022/12/18 01:21:49;;;;;;;64.40;23.80;;;-3.90;99.90;;;;;;5095478;28;20032;-75
2022/12/18 01:24:15;;;;;;;69.03;25.97;;;-4.00;99.90;;;;;;5095342;28;20035;-75
2022/12/18 01:26:40;;;;;;;69.63;24.80;;;-4.10;99.90;;;;;;5095365;28;20051;-75
2022/12/18 01:29:06;;;;;;;64.13;24.67;;;-4.10;99.90;;;;;;5095137;28;20509;-75
2022/12/18 01:31:33;;;;;;;60.70;23.80;;;-4.10;99.90;;;;;;5095021;28;20408;-75
2022/12/18 01:34:04;;;;;;;61.57;24.60;;;-4.20;99.90;;;;;;5078827;27;20501;-75
2022/12/18 01:36:33;;;;;;;62.90;24.27;;;-4.20;99.90;;;;;;5095410;28;20431;-75
2022/12/18 01:39:08;;;;;;;65.10;22.90;;;-4.20;99.90;;;;;;5094896;28;20042;-75
2022/12/18 01:44:46;;;;;;;65.73;25.80;;;-4.30;99.90;;;;;;5094275;28;20074;-74
2022/12/18 01:47:43;;;;;;;62.00;22.75;;;-4.40;99.90;;;;;;5110525;27;20043;-75
2022/12/18 01:50:16;;;;;;;67.47;24.20;;;-4.40;99.90;;;;;;5102285;27;20055;-75
2022/12/18 01:52:55;;;;;;;64.93;24.88;;;-4.40;99.90;;;;;;5109527;28;20039;-75
2022/12/18 01:55:23;;;;;;;71.47;25.23;;;-4.40;99.90;;;;;;5104615;27;20023;-75
2022/12/18 01:57:52;;;;;;;65.07;24.97;;;-4.40;99.90;;;;;;5105779;27;20038;-74
2022/12/18 02:00:20;;;;;;;61.10;23.40;;;-4.50;99.90;;;;;;5104443;27;20031;-74
2022/12/18 02:02:46;;;;;;;64.60;25.50;;;-4.60;99.90;;;;;;5104685;27;20663;-74
2022/12/18 02:05:17;;;;;;;66.33;23.77;;;-4.60;99.90;;;;;;5102564;27;20122;-74
2022/12/18 02:08:09;;;;;;;66.47;24.00;;;-4.60;99.90;;;;;;5104294;27;20034;-75
2022/12/18 02:10:38;;;;;;;60.63;23.70;;;-4.70;99.90;;;;;;5108021;27;20035;-74
2022/12/18 02:13:21;;;;;;;66.40;25.00;;;-4.70;99.90;;;;;;5091141;28;20042;-74
2022/12/18 02:16:04;;;;;;;61.92;24.83;;;-4.70;99.90;;;;;;5115069;27;20436;-75
2022/12/18 02:18:34;;;;;;;63.87;23.90;;;-4.70;99.90;;;;;;5096376;28;20035;-74
2022/12/18 02:21:00;;;;;;;70.83;24.37;;;-4.80;99.90;;;;;;5094965;28;20413;-73
2022/12/18 02:23:47;;;;;;;71.13;24.50;;;-4.80;99.90;;;;;;5093948;28;20036;-75
2022/12/18 02:26:18;;;;;;;70.23;25.33;;;-4.80;99.90;;;;;;5102936;27;20515;-75
2022/12/18 02:28:49;;;;;;;77.70;28.00;;;-4.80;99.90;;;;;;5097361;27;20043;-74
2022/12/18 02:31:24;;;;;;;67.70;24.03;;;-4.90;99.90;;;;;;5095369;28;20441;-74
2022/12/18 02:33:53;;;;;;;75.23;26.27;;;-4.90;99.90;;;;;;5093929;28;20415;-75
2022/12/18 02:36:21;;;;;;;72.97;26.50;;;-4.90;99.90;;;;;;5094867;27;20161;-75
2022/12/18 02:38:47;;;;;;;72.60;25.50;;;-4.90;99.90;;;;;;5107845;27;20062;-74
2022/12/18 02:41:15;;;;;;;63.63;24.93;;;-4.90;99.90;;;;;;5113714;27;20039;-73
2022/12/18 02:43:49;;;;;;;77.37;24.97;;;-4.90;99.90;;;;;;5094273;28;20404;-74
2022/12/18 02:46:32;;;;;;;65.27;22.97;;;-4.90;99.90;;;;;;5093977;28;20047;-74
2022/12/18 02:49:11;;;;;;;72.10;24.20;;;-5.00;99.90;;;;;;5094060;28;20051;-74
2022/12/18 02:51:51;;;;;;;66.43;24.17;;;-4.90;99.90;;;;;;5092815;28;20571;-74
2022/12/18 02:55:00;;;;;;;68.53;23.90;;;-4.90;99.90;;;;;;5094307;28;20488;-73
2022/12/18 02:57:39;;;;;;;69.77;24.00;;;-4.90;99.90;;;;;;5076798;28;20140;-74
2022/12/18 03:00:13;;;;;;;73.77;27.53;;;-5.00;99.90;;;;;;5093983;28;20370;-74
2022/12/18 03:02:46;;;;;;;74.07;26.77;;;-5.00;99.90;;;;;;5101610;27;20046;-74
2022/12/18 03:05:50;;;;;;;71.87;26.87;;;-4.90;99.90;;;;;;5113109;27;20058;-73
2022/12/18 03:08:21;;;;;;;75.40;26.10;;;-4.90;99.90;;;;;;5082487;28;20047;-74
2022/12/18 03:10:59;;;;;;;79.67;29.57;;;-4.90;99.90;;;;;;5094243;28;20035;-74
2022/12/18 03:13:30;;;;;;;69.67;26.87;;;-5.00;99.90;;;;;;5076404;28;20039;-74
2022/12/18 03:15:58;;;;;;;89.63;28.63;;;-4.90;99.90;;;;;;5093461;28;20110;-74
2022/12/18 03:18:38;;;;;;;78.13;28.13;;;-5.00;99.90;;;;;;5118934;27;20038;-73
2022/12/18 03:21:07;;;;;;;70.70;26.30;;;-5.00;99.90;;;;;;5115699;27;20041;-73
2022/12/18 03:23:40;;;;;;;81.50;26.83;;;-5.10;99.90;;;;;;5099731;27;20043;-74
2022/12/18 03:26:11;;;;;;;81.78;27.58;;;-5.10;99.90;;;;;;5127714;27;20520;-73
2022/12/18 03:28:43;;;;;;;76.87;27.10;;;-5.10;99.90;;;;;;5096099;28;20051;-74
2022/12/18 03:31:12;;;;;;;77.87;27.20;;;-5.10;99.90;;;;;;5092397;27;20044;-72
2022/12/18 03:33:42;;;;;;;79.40;28.17;;;-5.10;99.90;;;;;;5108536;28;20043;-74
2022/12/18 03:36:07;;;;;;;83.47;29.20;;;-5.10;99.90;;;;;;5108529;27;20040;-74
2022/12/18 03:38:33;;;;;;;80.30;27.50;;;-5.20;99.90;;;;;;5110618;27;20038;-73
2022/12/18 03:41:14;;;;;;;73.27;27.67;;;-5.20;99.90;;;;;;5113592;27;20118;-73
2022/12/18 03:44:18;;;;;;;71.23;25.97;;;-5.20;99.90;;;;;;5112812;27;20031;-74
2022/12/18 03:47:03;;;;;;;77.70;28.07;;;-5.20;99.90;;;;;;5104296;27;20125;-74
2022/12/18 03:49:38;;;;;;;73.63;25.97;;;-5.30;99.90;;;;;;5108167;27;20039;-73
2022/12/18 03:52:32;;;;;;;78.30;26.53;;;-5.30;99.90;;;;;;5115819;27;20118;-74
2022/12/18 03:54:59;;;;;;;76.25;27.35;;;-5.30;99.90;;;;;;5108331;28;20063;-74
2022/12/18 03:57:28;;;;;;;70.60;26.90;;;-5.30;99.90;;;;;;5109101;27;20070;-73
2022/12/18 03:59:59;;;;;;;66.63;25.13;;;-4.80;99.90;;;;;;5113083;27;20042;-73
2022/12/18 04:02:25;;;;;;;73.93;27.17;;;-5.30;99.90;;;;;;5114044;27;20050;-74
2022/12/18 04:04:53;;;;;;;68.53;28.57;;;-5.30;99.90;;;;;;5114798;27;20500;-73
2022/12/18 04:07:21;;;;;;;71.60;26.30;;;-5.40;99.90;;;;;;5112302;27;20051;-73
2022/12/18 04:09:49;;;;;;;68.17;25.97;;;-5.40;99.90;;;;;;5115308;27;20049;-73
2022/12/18 04:12:14;;;;;;;66.07;25.50;;;-5.40;99.90;;;;;;5109559;27;20040;-74
2022/12/18 04:14:40;;;;;;;71.97;27.60;;;-5.40;99.90;;;;;;5116056;27;20557;-73
2022/12/18 04:17:05;;;;;;;69.27;26.00;;;-5.40;99.90;;;;;;5113222;27;20050;-73
2022/12/18 04:19:31;;;;;;;65.27;25.20;;;-5.40;99.90;;;;;;5131688;27;20031;-73
2022/12/18 04:21:56;;;;;;;67.33;26.30;;;-5.50;99.90;;;;;;5112879;28;20412;-72
2022/12/18 04:24:22;;;;;;;69.87;26.17;;;-5.50;99.90;;;;;;5115864;27;20074;-73
2022/12/18 04:26:47;;;;;;;72.90;27.40;;;-5.50;99.90;;;;;;5109471;27;20172;-74
2022/12/18 04:29:13;;;;;;;71.70;26.80;;;-5.50;99.90;;;;;;5112331;27;20043;-73
2022/12/18 04:31:39;;;;;;;68.03;26.17;;;-5.50;99.90;;;;;;5114520;27;20051;-73
2022/12/18 04:34:04;;;;;;;64.10;24.73;;;-5.50;99.90;;;;;;5091092;27;20085;-72
2022/12/18 04:36:30;;;;;;;65.63;26.17;;;-5.50;99.90;;;;;;5111668;27;20428;-73
2022/12/18 04:38:55;;;;;;;62.53;24.80;;;-5.60;99.90;;;;;;5109812;28;20489;-73
2022/12/18 04:41:21;;;;;;;63.87;24.80;;;-5.60;99.90;;;;;;5108115;27;20042;-73
2022/12/18 04:43:47;;;;;;;69.80;24.83;;;-5.60;99.90;;;;;;5108124;27;20043;-72
2022/12/18 04:46:12;;;;;;;74.57;27.57;;;-5.50;99.90;;;;;;5108606;27;20070;-73
2022/12/18 04:48:38;;;;;;;69.67;25.17;;;-5.60;99.90;;;;;;5103421;27;20412;-73
2022/12/18 04:51:05;;;;;;;71.27;26.10;;;-5.60;99.90;;;;;;5108643;27;20050;-73
2022/12/18 04:53:30;;;;;;;65.13;25.00;;;-5.60;99.90;;;;;;5105834;28;20438;-73
2022/12/18 04:56:22;;;;;;;70.47;24.77;;;-5.70;99.90;;;;;;5104141;27;20038;-72
2022/12/18 04:58:48;;;;;;;64.13;25.60;;;-5.70;99.90;;;;;;5100737;28;20051;-73
2022/12/18 05:01:15;;;;;;;70.00;25.43;;;-5.70;99.90;;;;;;5109971;27;20035;-72
2022/12/18 05:03:41;;;;;;;66.70;25.33;;;-5.70;99.90;;;;;;5106749;27;22158;-73
2022/12/18 05:06:07;;;;;;;70.53;26.73;;;-5.70;99.90;;;;;;5100036;27;20118;-73
2022/12/18 05:08:32;;;;;;;69.97;25.73;;;-5.70;99.90;;;;;;5099550;27;20118;-73
2022/12/18 05:11:07;;;;;;;69.83;25.90;;;-5.70;99.90;;;;;;5108938;27;20126;-73
2022/12/18 05:13:33;;;;;;;66.87;25.40;;;-5.70;99.90;;;;;;5100248;27;20043;-73
2022/12/18 05:15:59;;;;;;;60.97;25.10;;;-5.70;99.90;;;;;;5105555;27;20042;-73
2022/12/18 05:18:25;;;;;;;63.90;25.23;;;-5.70;99.90;;;;;;5108904;27;20039;-71
2022/12/18 05:20:51;;;;;;;63.73;24.53;;;-5.70;99.90;;;;;;5102194;28;20505;-73
2022/12/18 05:23:17;;;;;;;59.03;23.57;;;-5.80;99.90;;;;;;5106520;27;20044;-73
2022/12/18 05:25:48;;;;;;;58.47;22.93;;;-5.80;99.90;;;;;;5103301;28;20046;-73
2022/12/18 05:28:14;;;;;;;63.47;24.23;;;-5.80;99.90;;;;;;5089566;27;20036;-72
2022/12/18 05:30:42;;;;;;;65.80;25.60;;;-5.80;99.90;;;;;;5109097;27;20458;-73
2022/12/18 05:33:08;;;;;;;62.27;24.80;;;-5.80;99.90;;;;;;5107202;27;20099;-72
2022/12/18 05:35:33;;;;;;;65.47;25.03;;;-5.80;99.90;;;;;;5111087;27;20039;-73
2022/12/18 05:37:59;;;;;;;62.17;24.53;;;-5.90;99.90;;;;;;5106748;28;20053;-73
2022/12/18 05:40:24;;;;;;;72.27;26.43;;;-5.90;99.90;;;;;;5111893;27;20058;-72
2022/12/18 05:42:50;;;;;;;60.63;25.60;;;-5.90;99.90;;;;;;5097627;28;20090;-73
2022/12/18 05:45:15;;;;;;;61.47;24.40;;;-5.90;99.90;;;;;;5107889;27;20108;-73
2022/12/18 05:47:41;;;;;;;61.97;23.33;;;-5.90;99.90;;;;;;5098720;28;20038;-73
2022/12/18 05:50:07;;;;;;;57.50;22.33;;;-5.90;99.90;;;;;;5090490;27;20646;-73
2022/12/18 05:52:33;;;;;;;65.60;25.67;;;-5.90;99.90;;;;;;5091113;27;20062;-72
2022/12/18 05:54:58;;;;;;;59.13;23.10;;;-6.00;99.90;;;;;;5101910;28;21003;-73
2022/12/18 05:57:24;;;;;;;56.23;22.93;;;-6.00;99.90;;;;;;5107534;27;20039;-72
2022/12/18 05:59:50;;;;;;;59.67;25.23;;;-6.00;99.90;;;;;;5106718;27;20114;-72
2022/12/18 06:02:15;;;;;;;57.27;22.80;;;-6.00;99.90;;;;;;5108849;27;20074;-72
2022/12/18 06:04:41;;;;;;;51.47;23.33;;;-6.10;99.90;;;;;;5105079;27;20046;-73
2022/12/18 06:07:06;;;;;;;62.73;24.10;;;-6.10;99.90;;;;;;5099407;27;20059;-72
2022/12/18 06:09:32;;;;;;;59.47;23.13;;;-6.20;99.90;;;;;;5103777;27;20047;-72
2022/12/18 06:11:57;;;;;;;60.97;24.40;;;-6.10;99.90;;;;;;5098286;27;20126;-72
2022/12/18 06:14:23;;;;;;;56.17;22.47;;;-6.10;99.90;;;;;;5099795;27;20046;-73
2022/12/18 06:16:51;;;;;;;52.13;22.87;;;-6.20;99.90;;;;;;5108045;27;20031;-72
2022/12/18 06:19:17;;;;;;;51.13;21.83;;;-6.20;99.90;;;;;;5094127;27;20035;-72
2022/12/18 06:21:42;;;;;;;56.50;22.83;;;-6.20;99.90;;;;;;5105305;27;20404;-73
2022/12/18 06:24:08;;;;;;;60.47;22.50;;;-6.20;99.90;;;;;;5102240;27;20043;-72
2022/12/18 06:26:36;;;;;;;54.00;20.17;;;-6.20;99.90;;;;;;5103668;27;20544;-72
2022/12/18 06:29:01;;;;;;;56.03;23.27;;;-6.20;99.90;;;;;;5121180;27;20038;-72
2022/12/18 06:31:27;;;;;;;57.77;22.30;;;-6.20;99.90;;;;;;5106890;27;20555;-72
2022/12/18 06:33:52;;;;;;;54.30;22.03;;;-6.20;99.90;;;;;;5100293;27;20070;-72
2022/12/18 06:36:19;;;;;;;45.43;21.50;;;-6.20;99.90;;;;;;5108449;27;20043;-71
2022/12/18 06:38:45;;;;;;;55.67;21.37;;;-6.20;99.90;;;;;;5107743;27;20122;-73
2022/12/18 06:41:16;;;;;;;59.60;21.60;;;-6.20;99.90;;;;;;5110150;27;20133;-72
2022/12/18 06:43:42;;;;;;;52.17;22.37;;;-6.20;99.90;;;;;;5085856;27;20036;-73
2022/12/18 06:46:08;;;;;;;52.63;22.17;;;-6.20;99.90;;;;;;5097993;28;20039;-72
2022/12/18 06:48:34;;;;;;;49.03;22.07;;;-6.20;99.90;;;;;;5109910;28;20381;-72
2022/12/18 06:51:00;;;;;;;50.03;21.37;;;-6.20;99.90;;;;;;5093714;28;20130;-72
2022/12/18 06:53:25;;;;;;;45.50;20.17;;;-6.30;99.90;;;;;;5092595;28;20442;-73
2022/12/18 06:55:51;;;;;;;48.17;20.33;;;-6.30;99.90;;;;;;5101898;27;20039;-72
2022/12/18 06:58:17;;;;;;;51.83;21.73;;;-6.30;99.90;;;;;;5089042;27;20072;-71
2022/12/18 07:00:43;;;;;;;49.37;20.67;;;-6.30;99.90;;;;;;5104084;27;20519;-72
2022/12/18 07:03:10;;;;;;;41.93;18.03;;;-6.30;99.90;;;;;;5112728;28;20039;-72
2022/12/18 07:05:40;;;;;;;41.30;20.00;;;-6.30;99.90;;;;;;5107120;27;20042;-72
2022/12/18 07:08:06;;;;;;;48.00;19.53;;;-6.30;99.90;;;;;;5100858;28;20126;-72
2022/12/18 07:10:32;;;;;;;43.80;20.30;;;-6.30;99.90;;;;;;5109112;27;20445;-72
2022/12/18 07:12:57;;;;;;;42.40;19.93;;;-6.30;99.90;;;;;;5111420;27;20106;-71
2022/12/18 07:15:23;;;;;;;38.27;18.20;;;-6.30;99.90;;;;;;5112364;27;20031;-72
2022/12/18 07:17:48;;;;;;;40.53;18.60;;;-6.30;99.90;;;;;;5103450;28;20535;-72
2022/12/18 07:20:14;;;;;;;40.93;19.00;;;-6.30;99.90;;;;;;5093098;28;20031;-72
2022/12/18 07:22:39;;;;;;;45.70;19.87;;;-6.30;99.90;;;;;;5098045;27;20031;-72
2022/12/18 07:25:06;;;;;;;44.57;18.80;;;-6.30;99.90;;;;;;5129174;27;20633;-72
2022/12/18 07:27:31;;;;;;;39.43;17.83;;;-6.20;99.90;;;;;;5112824;27;20035;-72
2022/12/18 07:29:57;;;;;;;38.07;18.83;;;-6.30;99.90;;;;;;5113240;27;20166;-72
2022/12/18 07:32:22;;;;;;;40.43;19.03;;;-6.30;99.90;;;;;;5113129;27;20111;-72
2022/12/18 07:34:48;;;;;;;37.87;18.03;;;-6.20;99.90;;;;;;5109633;27;20031;-71
2022/12/18 07:37:14;;;;;;;41.33;17.87;;;-6.20;99.90;;;;;;5111305;28;20035;-72
2022/12/18 07:39:39;;;;;;;34.00;17.80;;;-6.20;99.90;;;;;;5112057;28;20509;-73
2022/12/18 07:44:49;;;;;;;39.53;18.27;;;-6.20;99.90;;;;;;5094849;28;20509;-72
2022/12/18 07:47:14;;;;;;;37.07;17.50;;;-6.20;99.90;;;;;;5093499;28;20043;-72
2022/12/18 07:49:40;;;;;;;41.87;18.57;;;-6.10;99.90;;;;;;5112477;28;20043;-73
2022/12/18 07:52:05;;;;;;;37.67;18.03;;;-6.10;99.90;;;;;;5098124;28;20051;-72
2022/12/18 07:54:31;;;;;;;40.23;18.40;;;-6.20;99.90;;;;;;5111006;28;20118;-72
2022/12/18 07:56:56;;;;;;;40.60;18.47;;;-6.10;99.90;;;;;;5092851;28;20078;-71
2022/12/18 07:59:22;;;;;;;41.33;18.53;;;-6.10;99.90;;;;;;5076025;28;20043;-72
2022/12/18 08:01:47;;;;;;;38.67;18.80;;;-6.10;99.90;;;;;;5093066;28;20081;-72
2022/12/18 08:04:13;;;;;;;44.67;21.10;;;-6.10;99.90;;;;;;5076494;28;20062;-72
2022/12/18 08:06:38;;;;;;;37.87;18.80;;;-6.10;99.90;;;;;;5096310;28;20055;-73
2022/12/18 08:09:04;;;;;;;37.33;18.20;;;-6.10;99.90;;;;;;5121767;27;20105;-72
2022/12/18 08:11:29;;;;;;;39.23;19.17;;;-6.00;99.90;;;;;;5096867;28;20044;-72
2022/12/18 08:13:55;;;;;;;39.37;18.53;;;-6.00;99.90;;;;;;5096547;28;20043;-72
2022/12/18 08:16:23;;;;;;;37.60;18.57;;;-5.90;99.90;;;;;;5096669;28;20084;-71
2022/12/18 08:18:48;;;;;;;36.23;18.20;;;-5.90;99.90;;;;;;5096328;28;20036;-72
2022/12/18 08:21:17;;;;;;;37.90;18.03;;;-5.80;99.90;;;;;;5096605;28;20104;-72
2022/12/18 08:23:43;;;;;;;37.10;17.50;;;-5.80;99.90;;;;;;5096259;28;20078;-73
2022/12/18 08:26:11;;;;;;;40.47;18.87;;;-5.80;99.90;;;;;;5096785;28;20035;-72
2022/12/18 08:28:37;;;;;;;37.90;18.53;;;-5.70;99.90;;;;;;5096094;28;20039;-72
2022/12/18 08:31:03;;;;;;;38.10;17.97;;;-5.70;99.90;;;;;;5096190;28;20043;-72
2022/12/18 08:33:29;;;;;;;35.13;16.83;;;-5.70;99.90;;;;;;5096330;28;20390;-73
2022/12/18 08:35:54;;;;;;;38.17;19.57;;;-5.70;99.90;;;;;;5096163;28;20027;-72
2022/12/18 08:38:20;;;;;;;37.40;18.43;;;-5.60;99.90;;;;;;5096151;28;20044;-72
2022/12/18 08:40:46;;;;;;;36.10;18.80;;;-5.70;99.90;;;;;;5096016;28;20039;-71
2022/12/18 08:45:55;;;;;;;;;;;-5.60;99.90;;;;;;5113732;27;20050;-72
2022/12/18 08:48:21;;;;;;;39.47;17.87;;;-5.60;99.90;;;;;;5111045;27;20292;-72
2022/12/18 08:50:57;;;;;;;33.43;16.30;;;-5.60;99.90;;;;;;5103964;28;20047;-72
2022/12/18 08:53:24;;;;;;;36.80;19.23;;;-5.50;99.90;;;;;;5095507;28;20485;-73
2022/12/18 08:55:49;;;;;;;33.00;17.63;;;-5.50;99.90;;;;;;5095334;28;20111;-73
2022/12/18 08:58:15;;;;;;;35.20;17.47;;;-5.40;99.90;;;;;;5078632;28;20521;-72
2022/12/18 09:00:41;;;;;;;36.20;18.20;;;-5.40;99.90;;;;;;5095774;28;20036;-73
2022/12/18 09:03:15;;;;;;;31.80;17.27;;;-5.40;99.90;;;;;;5096063;28;20040;-73
2022/12/18 09:05:40;;;;;;;37.93;18.07;;;-5.30;99.90;;;;;;5095870;28;20218;-73
2022/12/18 09:08:06;;;;;;;34.93;16.87;;;-5.30;99.90;;;;;;5078715;28;20469;-72
2022/12/18 09:10:32;;;;;;;32.93;17.60;;;-5.20;99.90;;;;;;5095671;28;20040;-73
2022/12/18 09:12:58;;;;;;;31.17;16.33;;;-5.10;99.90;;;;;;5095601;28;20529;-73
2022/12/18 09:15:23;;;;;;;32.90;15.97;;;-5.10;99.90;;;;;;5124626;27;20531;-72
2022/12/18 09:17:49;;;;;;;32.23;16.20;;;-5.00;99.90;;;;;;5114968;27;20045;-71
2022/12/18 09:20:16;;;;;;;32.53;16.93;;;-5.00;99.90;;;;;;5104618;28;20035;-72
2022/12/18 09:22:42;;;;;;;30.00;16.27;;;-4.90;99.90;;;;;;5095399;28;20133;-73
2022/12/18 09:25:07;;;;;;;33.30;16.77;;;-4.90;99.90;;;;;;5108021;27;20404;-73
2022/12/18 09:27:34;;;;;;;31.87;16.13;;;-4.80;99.90;;;;;;5115806;27;20062;-73
2022/12/18 09:29:59;;;;;;;36.37;16.87;;;-4.80;99.90;;;;;;5105422;28;20066;-73
2022/12/18 09:32:25;;;;;;;35.77;18.07;;;-4.70;99.90;;;;;;5078436;28;20509;-74
2022/12/18 09:34:50;;;;;;;27.83;16.03;;;-4.70;99.90;;;;;;5095264;28;20127;-73
2022/12/18 09:37:16;;;;;;;28.10;16.13;;;-4.70;99.90;;;;;;5095036;28;20135;-74
2022/12/18 09:39:41;;;;;;;29.27;15.03;;;-4.60;99.90;;;;;;5077965;28;20031;-74
2022/12/18 09:42:19;;;;;;;29.10;16.20;;;-4.50;99.90;;;;;;5095059;28;20558;-73
2022/12/18 09:44:51;;;;;;;26.07;15.33;;;-4.50;99.90;;;;;;5095070;28;20122;-73
2022/12/18 09:47:23;;;;;;;29.27;15.33;;;-4.40;99.90;;;;;;5094790;28;20054;-73
2022/12/18 09:49:53;;;;;;;28.20;14.47;;;-4.40;99.90;;;;;;5095275;28;20031;-74
2022/12/18 09:52:25;;;;;;;29.50;15.40;;;-4.30;99.90;;;;;;5095047;28;20469;-74
2022/12/18 09:54:59;;;;;;;26.07;14.07;;;-4.30;99.90;;;;;;5094589;28;20118;-74
2022/12/18 09:57:25;;;;;;;23.57;13.73;;;-4.20;99.90;;;;;;5094843;28;20035;-73
2022/12/18 10:00:06;;;;;;;23.30;12.90;;;-4.20;99.90;;;;;;5093461;28;20100;-74
2022/12/18 10:02:32;;;;;;;24.77;14.03;;;-4.20;99.90;;;;;;5094675;28;20035;-74
2022/12/18 10:05:10;;;;;;;24.93;13.17;;;-4.20;99.90;;;;;;5077868;28;20036;-74
2022/12/18 10:07:43;;;;;;;23.70;12.63;;;-4.20;99.90;;;;;;5094327;28;20036;-75
2022/12/18 10:10:42;;;;;;;23.15;13.57;;;-4.20;99.90;;;;;;5094529;28;20050;-74
2022/12/18 10:13:23;;;;;;;19.83;12.03;;;-4.20;99.90;;;;;;5094400;28;20044;-74
2022/12/18 10:15:59;;;;;;;22.37;12.30;;;-4.20;99.90;;;;;;5094770;28;20400;-74
2022/12/18 10:18:48;;;;;;;22.40;13.33;;;-4.20;99.90;;;;;;5094089;28;20046;-75
2022/12/18 10:21:21;;;;;;;24.80;12.73;;;-4.20;99.90;;;;;;5094350;28;20051;-74
2022/12/18 10:24:02;;;;;;;25.42;13.93;;;-4.10;99.90;;;;;;5094239;28;20043;-75
2022/12/18 10:26:28;;;;;;;22.87;12.83;;;-4.00;99.90;;;;;;5094250;28;20123;-75
2022/12/18 10:28:56;;;;;;;24.47;13.70;;;-3.90;99.90;;;;;;5093110;28;20530;-74
2022/12/18 10:31:23;;;;;;;26.60;14.93;;;-3.90;99.90;;;;;;5093934;28;20500;-75
2022/12/18 10:33:49;;;;;;;29.53;15.40;;;-4.00;99.90;;;;;;5094015;28;20032;-74
2022/12/18 10:36:15;;;;;;;26.97;14.87;;;-4.00;99.90;;;;;;5094133;28;20047;-75
2022/12/18 10:38:40;;;;;;;31.17;15.70;;;-4.00;99.90;;;;;;5093701;28;20532;-74
2022/12/18 10:41:27;;;;;;;27.47;16.17;;;-3.90;99.90;;;;;;5094229;28;20197;-75
2022/12/18 10:44:11;;;;;;;28.33;14.50;;;-4.00;99.90;;;;;;5093831;28;20047;-74
2022/12/18 10:46:37;;;;;;;28.57;14.80;;;-4.00;99.90;;;;;;5094231;28;20044;-75
2022/12/18 10:49:04;;;;;;;25.70;14.67;;;-3.90;99.90;;;;;;5093805;28;20050;-74
2022/12/18 10:51:35;;;;;;;24.83;13.67;;;-3.90;99.90;;;;;;5093809;28;20051;-75
2022/12/18 10:54:34;;;;;;;24.90;13.90;;;-3.90;99.90;;;;;;5093777;28;20588;-75
2022/12/18 10:57:17;;;;;;;23.03;13.20;;;-3.80;99.90;;;;;;5066440;27;20044;-75
2022/12/18 10:59:54;;;;;;;;;;;-3.70;99.90;;;;;;5113514;27;20039;-75
2022/12/18 11:02:38;;;;;;;22.43;12.97;;;-3.70;99.90;;;;;;5095227;28;20643;-75
2022/12/18 11:05:30;;;;;;;22.10;12.48;;;-3.70;99.90;;;;;;5093531;28;20035;-75
2022/12/18 11:07:56;;;;;;;22.00;12.70;;;-3.60;99.90;;;;;;5093359;28;20115;-75
2022/12/18 11:10:27;;;;;;;20.87;12.47;;;-3.60;99.90;;;;;;5093426;28;20115;-75
2022/12/18 11:12:53;;;;;;;20.13;11.13;;;-3.50;99.90;;;;;;5093444;28;20056;-75
2022/12/18 11:15:23;;;;;;;24.87;13.07;;;-3.50;99.90;;;;;;5105122;28;20038;-74
2022/12/18 11:17:50;;;;;;;26.53;12.90;;;-3.50;99.90;;;;;;5112469;28;20047;-75
2022/12/18 11:20:33;;;;;;;39.93;17.77;;;-3.40;99.90;;;;;;5102297;28;20039;-75
2022/12/18 11:23:05;;;;;;;21.17;12.07;;;-3.40;99.90;;;;;;5093186;28;20731;-75
2022/12/18 11:25:33;;;;;;;21.30;11.93;;;-3.30;99.90;;;;;;5093536;28;20044;-75
2022/12/18 11:28:29;;;;;;;20.53;10.93;;;-3.30;99.90;;;;;;5093282;28;20036;-75
2022/12/18 11:31:18;;;;;;;16.83;10.43;;;-3.20;99.90;;;;;;5085290;28;20509;-75
2022/12/18 11:33:50;;;;;;;16.20;9.77;;;-3.20;99.90;;;;;;5093424;28;20043;-74
2022/12/18 11:36:17;;;;;;;17.47;11.10;;;-3.10;99.90;;;;;;5093504;28;20072;-75
2022/12/18 11:38:44;;;;;;;15.00;10.50;;;-3.10;99.90;;;;;;5099500;28;20035;-75
2022/12/18 11:42:08;;;;;;;15.83;9.37;;;-3.10;99.90;;;;;;5116628;27;20500;-75
2022/12/18 11:44:21;;;;;;;16.43;9.13;;;-3.00;99.90;;;;;;5097803;28;20100;-75
2022/12/18 11:46:56;;;;;;;15.43;9.00;;;-3.00;99.90;;;;;;5097338;28;20501;-76
2022/12/18 11:49:34;;;;;;;15.03;9.00;;;-3.00;99.90;;;;;;5097347;28;20114;-75
2022/12/18 11:52:15;;;;;;;13.50;8.93;;;-3.00;99.90;;;;;;5097168;28;20476;-74
2022/12/18 11:54:40;;;;;;;13.30;8.67;;;-3.00;99.90;;;;;;5096960;28;20420;-76
2022/12/18 11:57:20;;;;;;;15.47;9.13;;;-2.90;99.90;;;;;;5080220;28;20036;-74
2022/12/18 12:00:03;;;;;;;15.63;8.80;;;-2.90;99.90;;;;;;5096831;28;20040;-75
2022/12/18 12:03:12;;;;;;;14.63;8.87;;;-2.90;99.90;;;;;;5096969;28;20520;-75
2022/12/18 12:05:58;;;;;;;14.50;8.27;;;-2.90;99.90;;;;;;5096835;28;20058;-75
2022/12/18 12:08:55;;;;;;;14.07;7.73;;;-2.80;99.90;;;;;;5096603;28;20057;-76
2022/12/18 12:11:55;;;;;;;13.40;8.30;;;-2.80;99.90;;;;;;5099426;27;20027;-75
2022/12/18 12:15:03;;;;;;;13.53;7.40;;;-2.70;99.90;;;;;;5107328;28;20048;-75
2022/12/18 12:17:43;;;;;;;13.63;8.07;;;-2.60;99.90;;;;;;5061891;27;20437;-75
2022/12/18 12:20:39;;;;;;;12.10;7.47;;;-2.60;99.90;;;;;;5116085;27;20109;-75
2022/12/18 12:23:34;;;;;;;13.73;8.27;;;-2.60;99.90;;;;;;5106597;27;20122;-76
2022/12/18 12:26:19;;;;;;;17.97;10.37;;;-2.60;99.90;;;;;;5111913;27;20250;-75
2022/12/18 12:29:11;;;;;;;13.47;7.90;;;-2.50;99.90;;;;;;5099422;27;20097;-76
2022/12/18 12:31:51;;;;;;;11.80;7.10;;;-2.50;99.90;;;;;;5066991;28;20047;-76
2022/12/18 12:34:23;;;;;;;12.67;7.40;;;-2.50;99.90;;;;;;5108239;27;20039;-76
2022/12/18 12:37:26;;;;;;;12.37;7.77;;;-2.40;99.90;;;;;;5110330;27;20057;-76
2022/12/18 12:39:54;;;;;;;11.50;7.17;;;-2.30;99.90;;;;;;5102859;27;20063;-77
2022/12/18 12:45:39;;;;;;;12.70;7.30;;;-2.30;99.90;;;;;;5101948;27;20121;-77
2022/12/18 12:48:10;;;;;;;9.60;6.17;;;-2.20;99.90;;;;;;5099061;27;20039;-77
2022/12/18 12:50:38;;;;;;;11.53;6.80;;;-2.20;99.90;;;;;;5101273;28;20031;-77
2022/12/18 12:53:09;;;;;;;11.67;6.40;;;-2.20;99.90;;;;;;5105354;27;20412;-77
2022/12/18 12:55:35;;;;;;;9.53;6.60;;;-2.10;99.90;;;;;;5107066;28;20035;-77
2022/12/18 12:58:18;;;;;;;12.40;6.97;;;-2.10;99.90;;;;;;5095545;28;20091;-77